Ocate, New Mexico
Current Conditions -  °F | °C
As of 3:35 PM on Friday 19 Dec 2014 (Local Time) from KAXX Reporting Station
Clear Clear  
Wind Chill: 16°   Ceiling: Unl
Heat Index: 28°   Visibility: 10mi
Dew Point: 17°   Wind: 16mph
Humidity: 64%   Direction: 250°WSW
Pressure: 30.11"   Gusts: 21mph
Location:  36.17°N, 105.05°W
Report Text: KAXX 192235Z AUTO 25014G18KT 10SM CLR M02/M08 A3011 RMK AO2 T10221082
Loading
Personal Weather Stations






























Interactive Weather Map New forecast layout! Learn more

10-Day Weather Forecast

Advertisements
Track Severe Weather on mobile